KOEO

L O Simenstad Municipal Airport

Osceola, Wisconsin, USA
METAR KOEO 201655Z AUTO 35015G25KT 10SM SCT050 SCT060 03/M08 A3022 RMK AO2 T00291078
Observed Flight Rules
Oct-20 @ 16:55 UTC (35 minutes ago) Visual Flight Rules
Wind Visibility Clouds
350° at 15 knots
 Gusting to 25 knots
10 miles
  • Scattered at 5,000' AGL
  • Scattered at 6,000' AGL
Temperatures Readings
Current 3°C / 37°F
Dewpoint -8°C / 18°F
Humidity 45%
Altimeter 30.22" Hg
Pressure 1023 hPa
Elevation 275
METAR KOEO 201655Z AUTO 35015G25KT 10SM SCT050 SCT060 03/M08 A3022 RMK AO2 T00291078
Observed Flight Rules
Oct-20 @ 16:55 UTC
(35 minutes ago)
VFR
Wind Visibility
350° at 15 knots
 Gusting to 25 knots
10 miles
Clouds
  • Scattered at 5,000' AGL
  • Scattered at 6,000' AGL
Temperature Dewpoint
3°C / 37°F -8°C / 18°F
Humidity Altimeter Pressure
45% 30.22" Hg 1023 hPa